sensor_id;sensor_type;location;lat;lon;timestamp;P1;durP1;ratioP1;P2;durP2;ratioP2
65375;SDS011;51976;47.332;9.404;2023-06-10T00:02:20;7.45;;;5.28;;
65375;SDS011;51976;47.332;9.404;2023-06-10T00:04:45;7.65;;;5.18;;
65375;SDS011;51976;47.332;9.404;2023-06-10T00:07:11;6.15;;;4.97;;
65375;SDS011;51976;47.332;9.404;2023-06-10T00:09:37;5.90;;;4.38;;
65375;SDS011;51976;47.332;9.404;2023-06-10T00:12:05;4.20;;;3.78;;
65375;SDS011;51976;47.332;9.404;2023-06-10T00:14:32;4.53;;;3.80;;
65375;SDS011;51976;47.332;9.404;2023-06-10T00:16:58;6.22;;;4.38;;
65375;SDS011;51976;47.332;9.404;2023-06-10T00:19:24;6.57;;;3.53;;
65375;SDS011;51976;47.332;9.404;2023-06-10T00:21:50;5.00;;;4.00;;
65375;SDS011;51976;47.332;9.404;2023-06-10T00:24:17;4.57;;;3.92;;
65375;SDS011;51976;47.332;9.404;2023-06-10T00:26:43;6.35;;;4.18;;
65375;SDS011;51976;47.332;9.404;2023-06-10T00:29:09;6.28;;;4.15;;
65375;SDS011;51976;47.332;9.404;2023-06-10T00:31:35;5.45;;;3.70;;
65375;SDS011;51976;47.332;9.404;2023-06-10T00:34:01;6.72;;;3.92;;
65375;SDS011;51976;47.332;9.404;2023-06-10T00:36:27;4.47;;;3.92;;
65375;SDS011;51976;47.332;9.404;2023-06-10T00:38:53;4.68;;;3.70;;
65375;SDS011;51976;47.332;9.404;2023-06-10T00:41:18;4.50;;;3.58;;
65375;SDS011;51976;47.332;9.404;2023-06-10T00:43:44;4.57;;;3.65;;
65375;SDS011;51976;47.332;9.404;2023-06-10T00:46:09;4.28;;;3.88;;
65375;SDS011;51976;47.332;9.404;2023-06-10T00:48:37;5.13;;;4.13;;
65375;SDS011;51976;47.332;9.404;2023-06-10T00:51:03;4.68;;;4.05;;
65375;SDS011;51976;47.332;9.404;2023-06-10T00:53:30;4.32;;;3.88;;
65375;SDS011;51976;47.332;9.404;2023-06-10T00:55:55;4.50;;;4.10;;
65375;SDS011;51976;47.332;9.404;2023-06-10T00:58:22;4.70;;;3.90;;
65375;SDS011;51976;47.332;9.404;2023-06-10T01:00:48;5.60;;;4.00;;
65375;SDS011;51976;47.332;9.404;2023-06-10T01:03:14;4.70;;;4.00;;
65375;SDS011;51976;47.332;9.404;2023-06-10T01:05:42;4.93;;;3.88;;
65375;SDS011;51976;47.332;9.404;2023-06-10T01:08:22;8.27;;;3.65;;
65375;SDS011;51976;47.332;9.404;2023-06-10T01:10:59;6.07;;;3.85;;
65375;SDS011;51976;47.332;9.404;2023-06-10T01:13:26;4.18;;;3.67;;
65375;SDS011;51976;47.332;9.404;2023-06-10T01:15:56;4.70;;;3.65;;
65375;SDS011;51976;47.332;9.404;2023-06-10T01:18:22;4.78;;;3.95;;
65375;SDS011;51976;47.332;9.404;2023-06-10T01:20:48;7.15;;;4.07;;
65375;SDS011;51976;47.332;9.404;2023-06-10T01:23:15;4.50;;;3.63;;
65375;SDS011;51976;47.332;9.404;2023-06-10T01:25:49;5.35;;;4.18;;
65375;SDS011;51976;47.332;9.404;2023-06-10T01:28:33;6.90;;;4.20;;
65375;SDS011;51976;47.332;9.404;2023-06-10T01:31:08;5.78;;;4.50;;
65375;SDS011;51976;47.332;9.404;2023-06-10T01:33:42;5.03;;;4.25;;
65375;SDS011;51976;47.332;9.404;2023-06-10T01:36:11;5.78;;;4.18;;
65375;SDS011;51976;47.332;9.404;2023-06-10T01:38:39;5.03;;;4.32;;
65375;SDS011;51976;47.332;9.404;2023-06-10T01:41:07;4.50;;;3.95;;
65375;SDS011;51976;47.332;9.404;2023-06-10T01:43:34;5.07;;;4.10;;
65375;SDS011;51976;47.332;9.404;2023-06-10T01:46:02;4.50;;;3.65;;
65375;SDS011;51976;47.332;9.404;2023-06-10T01:48:27;4.32;;;3.75;;
65375;SDS011;51976;47.332;9.404;2023-06-10T01:50:53;5.60;;;3.50;;
65375;SDS011;51976;47.332;9.404;2023-06-10T01:53:20;5.15;;;4.25;;
65375;SDS011;51976;47.332;9.404;2023-06-10T01:55:46;6.95;;;4.32;;
65375;SDS011;51976;47.332;9.404;2023-06-10T01:58:11;5.68;;;4.05;;
65375;SDS011;51976;47.332;9.404;2023-06-10T02:00:36;4.15;;;3.60;;
65375;SDS011;51976;47.332;9.404;2023-06-10T02:03:02;4.28;;;3.80;;
65375;SDS011;51976;47.332;9.404;2023-06-10T02:05:27;4.63;;;3.78;;
65375;SDS011;51976;47.332;9.404;2023-06-10T02:07:52;4.85;;;3.67;;
65375;SDS011;51976;47.332;9.404;2023-06-10T02:10:18;4.75;;;3.90;;
65375;SDS011;51976;47.332;9.404;2023-06-10T02:12:43;7.03;;;3.92;;
65375;SDS011;51976;47.332;9.404;2023-06-10T02:15:09;6.85;;;4.10;;
65375;SDS011;51976;47.332;9.404;2023-06-10T02:17:34;5.30;;;3.60;;
65375;SDS011;51976;47.332;9.404;2023-06-10T02:19:59;6.90;;;4.05;;
65375;SDS011;51976;47.332;9.404;2023-06-10T02:22:29;5.50;;;3.75;;
65375;SDS011;51976;47.332;9.404;2023-06-10T02:24:54;4.90;;;3.60;;
65375;SDS011;51976;47.332;9.404;2023-06-10T02:27:20;4.75;;;3.58;;
65375;SDS011;51976;47.332;9.404;2023-06-10T02:29:45;5.20;;;4.13;;
65375;SDS011;51976;47.332;9.404;2023-06-10T02:32:11;4.82;;;4.10;;
65375;SDS011;51976;47.332;9.404;2023-06-10T02:34:36;5.80;;;4.80;;
65375;SDS011;51976;47.332;9.404;2023-06-10T02:37:02;5.93;;;4.47;;
65375;SDS011;51976;47.332;9.404;2023-06-10T02:39:27;6.57;;;4.35;;
65375;SDS011;51976;47.332;9.404;2023-06-10T02:41:53;5.13;;;4.40;;
65375;SDS011;51976;47.332;9.404;2023-06-10T02:44:18;7.13;;;4.78;;
65375;SDS011;51976;47.332;9.404;2023-06-10T02:46:44;6.57;;;4.40;;
65375;SDS011;51976;47.332;9.404;2023-06-10T02:49:11;4.38;;;3.78;;
65375;SDS011;51976;47.332;9.404;2023-06-10T02:51:36;5.13;;;4.07;;
65375;SDS011;51976;47.332;9.404;2023-06-10T02:54:02;6.88;;;4.70;;
65375;SDS011;51976;47.332;9.404;2023-06-10T02:56:27;5.55;;;4.25;;
65375;SDS011;51976;47.332;9.404;2023-06-10T02:58:53;5.18;;;4.13;;
65375;SDS011;51976;47.332;9.404;2023-06-10T03:01:18;7.25;;;4.00;;
65375;SDS011;51976;47.332;9.404;2023-06-10T03:03:44;4.63;;;3.85;;
65375;SDS011;51976;47.332;9.404;2023-06-10T03:06:11;6.60;;;3.25;;
65375;SDS011;51976;47.332;9.404;2023-06-10T03:08:37;7.78;;;3.90;;
65375;SDS011;51976;47.332;9.404;2023-06-10T03:11:03;4.78;;;3.92;;
65375;SDS011;51976;47.332;9.404;2023-06-10T03:13:29;4.90;;;3.88;;
65375;SDS011;51976;47.332;9.404;2023-06-10T03:15:54;5.88;;;3.97;;
65375;SDS011;51976;47.332;9.404;2023-06-10T03:18:20;4.68;;;4.18;;
65375;SDS011;51976;47.332;9.404;2023-06-10T03:20:45;5.30;;;3.92;;
65375;SDS011;51976;47.332;9.404;2023-06-10T03:23:11;7.03;;;4.13;;
65375;SDS011;51976;47.332;9.404;2023-06-10T03:25:36;5.82;;;4.57;;
65375;SDS011;51976;47.332;9.404;2023-06-10T03:28:02;5.03;;;4.07;;
65375;SDS011;51976;47.332;9.404;2023-06-10T03:30:27;5.05;;;4.07;;
65375;SDS011;51976;47.332;9.404;2023-06-10T03:32:53;4.72;;;3.95;;
65375;SDS011;51976;47.332;9.404;2023-06-10T03:35:19;5.07;;;4.30;;
65375;SDS011;51976;47.332;9.404;2023-06-10T03:37:44;4.70;;;4.00;;
65375;SDS011;51976;47.332;9.404;2023-06-10T03:40:10;5.47;;;4.05;;
65375;SDS011;51976;47.332;9.404;2023-06-10T03:42:36;6.60;;;4.18;;
65375;SDS011;51976;47.332;9.404;2023-06-10T03:45:02;4.53;;;3.97;;
65375;SDS011;51976;47.332;9.404;2023-06-10T03:47:32;4.95;;;4.40;;
65375;SDS011;51976;47.332;9.404;2023-06-10T03:50:00;5.30;;;4.18;;
65375;SDS011;51976;47.332;9.404;2023-06-10T03:52:26;4.72;;;4.20;;
65375;SDS011;51976;47.332;9.404;2023-06-10T03:54:52;6.15;;;4.13;;
65375;SDS011;51976;47.332;9.404;2023-06-10T03:57:17;5.78;;;4.30;;
65375;SDS011;51976;47.332;9.404;2023-06-10T03:59:43;6.07;;;3.92;;
65375;SDS011;51976;47.332;9.404;2023-06-10T04:02:08;8.38;;;4.78;;
65375;SDS011;51976;47.332;9.404;2023-06-10T04:04:34;7.15;;;4.70;;
65375;SDS011;51976;47.332;9.404;2023-06-10T04:07:00;5.97;;;4.45;;
65375;SDS011;51976;47.332;9.404;2023-06-10T04:09:25;5.68;;;4.57;;
65375;SDS011;51976;47.332;9.404;2023-06-10T04:11:50;6.20;;;5.20;;
65375;SDS011;51976;47.332;9.404;2023-06-10T04:14:16;8.07;;;6.03;;
65375;SDS011;51976;47.332;9.404;2023-06-10T04:16:41;7.03;;;4.82;;
65375;SDS011;51976;47.332;9.404;2023-06-10T04:19:07;10.30;;;6.70;;
65375;SDS011;51976;47.332;9.404;2023-06-10T04:21:33;7.35;;;5.30;;
65375;SDS011;51976;47.332;9.404;2023-06-10T04:23:58;8.82;;;5.30;;
65375;SDS011;51976;47.332;9.404;2023-06-10T04:26:24;7.63;;;5.55;;
65375;SDS011;51976;47.332;9.404;2023-06-10T04:28:50;6.88;;;5.53;;
65375;SDS011;51976;47.332;9.404;2023-06-10T04:31:16;7.40;;;5.40;;
65375;SDS011;51976;47.332;9.404;2023-06-10T04:33:41;6.78;;;5.00;;
65375;SDS011;51976;47.332;9.404;2023-06-10T04:36:07;5.88;;;4.97;;
65375;SDS011;51976;47.332;9.404;2023-06-10T04:38:32;6.32;;;4.75;;
65375;SDS011;51976;47.332;9.404;2023-06-10T04:40:57;6.60;;;4.85;;
65375;SDS011;51976;47.332;9.404;2023-06-10T04:43:23;6.03;;;5.15;;
65375;SDS011;51976;47.332;9.404;2023-06-10T04:45:48;6.63;;;5.03;;
65375;SDS011;51976;47.332;9.404;2023-06-10T04:48:14;6.07;;;4.47;;
65375;SDS011;51976;47.332;9.404;2023-06-10T04:50:40;5.60;;;4.60;;
65375;SDS011;51976;47.332;9.404;2023-06-10T04:53:05;6.28;;;4.35;;
65375;SDS011;51976;47.332;9.404;2023-06-10T04:55:34;6.22;;;4.50;;
65375;SDS011;51976;47.332;9.404;2023-06-10T04:57:59;6.70;;;4.53;;
65375;SDS011;51976;47.332;9.404;2023-06-10T05:00:25;5.78;;;4.70;;
65375;SDS011;51976;47.332;9.404;2023-06-10T05:02:50;6.97;;;5.03;;
65375;SDS011;51976;47.332;9.404;2023-06-10T05:05:16;8.35;;;5.35;;
65375;SDS011;51976;47.332;9.404;2023-06-10T05:07:42;7.85;;;5.38;;
65375;SDS011;51976;47.332;9.404;2023-06-10T05:10:07;6.15;;;4.75;;
65375;SDS011;51976;47.332;9.404;2023-06-10T05:12:33;10.48;;;5.10;;
65375;SDS011;51976;47.332;9.404;2023-06-10T05:14:59;7.18;;;5.43;;
65375;SDS011;51976;47.332;9.404;2023-06-10T05:17:24;7.50;;;4.80;;
65375;SDS011;51976;47.332;9.404;2023-06-10T05:19:50;7.00;;;5.18;;
65375;SDS011;51976;47.332;9.404;2023-06-10T05:22:16;7.13;;;4.72;;
65375;SDS011;51976;47.332;9.404;2023-06-10T05:24:43;5.38;;;4.55;;
65375;SDS011;51976;47.332;9.404;2023-06-10T05:27:09;5.47;;;4.85;;
65375;SDS011;51976;47.332;9.404;2023-06-10T05:29:34;6.55;;;4.82;;
65375;SDS011;51976;47.332;9.404;2023-06-10T05:32:00;7.28;;;5.25;;
65375;SDS011;51976;47.332;9.404;2023-06-10T05:34:28;8.13;;;4.57;;
65375;SDS011;51976;47.332;9.404;2023-06-10T05:36:56;7.35;;;4.88;;
65375;SDS011;51976;47.332;9.404;2023-06-10T05:39:21;6.03;;;4.57;;
65375;SDS011;51976;47.332;9.404;2023-06-10T05:41:47;7.15;;;4.95;;
65375;SDS011;51976;47.332;9.404;2023-06-10T05:44:12;8.18;;;4.82;;
65375;SDS011;51976;47.332;9.404;2023-06-10T05:46:38;6.22;;;5.22;;
65375;SDS011;51976;47.332;9.404;2023-06-10T05:49:03;7.70;;;5.65;;
65375;SDS011;51976;47.332;9.404;2023-06-10T05:51:28;6.03;;;4.60;;
65375;SDS011;51976;47.332;9.404;2023-06-10T05:53:54;6.07;;;5.00;;
65375;SDS011;51976;47.332;9.404;2023-06-10T05:56:19;7.03;;;4.97;;
65375;SDS011;51976;47.332;9.404;2023-06-10T05:58:47;8.65;;;5.18;;
65375;SDS011;51976;47.332;9.404;2023-06-10T06:01:13;5.15;;;4.65;;
65375;SDS011;51976;47.332;9.404;2023-06-10T06:03:38;5.47;;;4.97;;
65375;SDS011;51976;47.332;9.404;2023-06-10T06:06:03;5.97;;;4.93;;
65375;SDS011;51976;47.332;9.404;2023-06-10T06:08:29;7.03;;;4.60;;
65375;SDS011;51976;47.332;9.404;2023-06-10T06:10:55;5.75;;;4.97;;
65375;SDS011;51976;47.332;9.404;2023-06-10T06:13:20;6.00;;;5.32;;
65375;SDS011;51976;47.332;9.404;2023-06-10T06:15:45;8.32;;;5.32;;
65375;SDS011;51976;47.332;9.404;2023-06-10T06:18:11;6.20;;;5.22;;
65375;SDS011;51976;47.332;9.404;2023-06-10T06:20:36;8.80;;;5.50;;
65375;SDS011;51976;47.332;9.404;2023-06-10T06:23:02;6.07;;;5.22;;
65375;SDS011;51976;47.332;9.404;2023-06-10T06:25:27;5.97;;;5.38;;
65375;SDS011;51976;47.332;9.404;2023-06-10T06:27:52;8.20;;;5.32;;
65375;SDS011;51976;47.332;9.404;2023-06-10T06:30:18;8.25;;;5.75;;
65375;SDS011;51976;47.332;9.404;2023-06-10T06:32:43;6.60;;;5.80;;
65375;SDS011;51976;47.332;9.404;2023-06-10T06:35:08;6.45;;;5.85;;
65375;SDS011;51976;47.332;9.404;2023-06-10T06:37:35;7.13;;;6.05;;
65375;SDS011;51976;47.332;9.404;2023-06-10T06:40:01;6.22;;;5.32;;
65375;SDS011;51976;47.332;9.404;2023-06-10T06:42:26;6.45;;;5.78;;
65375;SDS011;51976;47.332;9.404;2023-06-10T06:44:52;6.65;;;5.68;;
65375;SDS011;51976;47.332;9.404;2023-06-10T06:47:17;7.00;;;5.82;;
65375;SDS011;51976;47.332;9.404;2023-06-10T06:49:45;6.32;;;5.72;;
65375;SDS011;51976;47.332;9.404;2023-06-10T06:52:11;7.15;;;6.22;;
65375;SDS011;51976;47.332;9.404;2023-06-10T06:54:36;7.32;;;6.03;;
65375;SDS011;51976;47.332;9.404;2023-06-10T06:57:02;6.00;;;5.40;;
65375;SDS011;51976;47.332;9.404;2023-06-10T06:59:27;7.70;;;5.63;;
65375;SDS011;51976;47.332;9.404;2023-06-10T07:01:53;10.40;;;5.82;;
65375;SDS011;51976;47.332;9.404;2023-06-10T07:04:19;6.68;;;6.07;;
65375;SDS011;51976;47.332;9.404;2023-06-10T07:06:46;8.20;;;6.32;;
65375;SDS011;51976;47.332;9.404;2023-06-10T07:09:12;7.90;;;6.03;;
65375;SDS011;51976;47.332;9.404;2023-06-10T07:11:38;8.95;;;6.45;;
65375;SDS011;51976;47.332;9.404;2023-06-10T07:14:03;8.38;;;6.53;;
65375;SDS011;51976;47.332;9.404;2023-06-10T07:16:29;7.18;;;6.32;;
65375;SDS011;51976;47.332;9.404;2023-06-10T07:18:54;6.95;;;6.05;;
65375;SDS011;51976;47.332;9.404;2023-06-10T07:21:20;7.53;;;6.28;;
65375;SDS011;51976;47.332;9.404;2023-06-10T07:23:45;7.07;;;6.22;;
65375;SDS011;51976;47.332;9.404;2023-06-10T07:26:11;7.95;;;6.95;;
65375;SDS011;51976;47.332;9.404;2023-06-10T07:28:38;6.78;;;6.07;;
65375;SDS011;51976;47.332;9.404;2023-06-10T07:31:04;7.78;;;6.13;;
65375;SDS011;51976;47.332;9.404;2023-06-10T07:33:30;7.93;;;6.28;;
65375;SDS011;51976;47.332;9.404;2023-06-10T07:35:55;10.05;;;6.65;;
65375;SDS011;51976;47.332;9.404;2023-06-10T07:38:20;8.15;;;6.88;;
65375;SDS011;51976;47.332;9.404;2023-06-10T07:40:46;7.18;;;6.15;;
65375;SDS011;51976;47.332;9.404;2023-06-10T07:43:12;9.90;;;6.60;;
65375;SDS011;51976;47.332;9.404;2023-06-10T07:45:39;7.32;;;6.28;;
65375;SDS011;51976;47.332;9.404;2023-06-10T07:48:05;7.57;;;6.50;;
65375;SDS011;51976;47.332;9.404;2023-06-10T07:50:30;8.68;;;6.72;;
65375;SDS011;51976;47.332;9.404;2023-06-10T07:52:56;8.10;;;7.30;;
65375;SDS011;51976;47.332;9.404;2023-06-10T07:55:21;10.10;;;6.82;;
65375;SDS011;51976;47.332;9.404;2023-06-10T07:57:46;9.38;;;7.18;;
65375;SDS011;51976;47.332;9.404;2023-06-10T08:00:12;7.72;;;6.65;;
65375;SDS011;51976;47.332;9.404;2023-06-10T08:02:38;9.35;;;6.93;;
65375;SDS011;51976;47.332;9.404;2023-06-10T08:05:04;10.05;;;7.53;;
65375;SDS011;51976;47.332;9.404;2023-06-10T08:07:29;8.48;;;7.55;;
65375;SDS011;51976;47.332;9.404;2023-06-10T08:09:55;9.27;;;7.00;;
65375;SDS011;51976;47.332;9.404;2023-06-10T08:12:21;9.48;;;7.25;;
65375;SDS011;51976;47.332;9.404;2023-06-10T08:14:46;8.90;;;6.90;;
65375;SDS011;51976;47.332;9.404;2023-06-10T08:17:12;9.25;;;7.22;;
65375;SDS011;51976;47.332;9.404;2023-06-10T08:19:37;8.82;;;6.95;;
65375;SDS011;51976;47.332;9.404;2023-06-10T08:22:03;7.72;;;6.90;;
65375;SDS011;51976;47.332;9.404;2023-06-10T08:24:28;10.15;;;7.72;;
65375;SDS011;51976;47.332;9.404;2023-06-10T08:26:54;15.13;;;7.50;;
65375;SDS011;51976;47.332;9.404;2023-06-10T08:29:21;8.98;;;7.43;;
65375;SDS011;51976;47.332;9.404;2023-06-10T08:31:46;7.38;;;6.68;;
65375;SDS011;51976;47.332;9.404;2023-06-10T08:34:12;7.75;;;6.85;;
65375;SDS011;51976;47.332;9.404;2023-06-10T08:36:37;9.40;;;7.20;;
65375;SDS011;51976;47.332;9.404;2023-06-10T08:39:03;8.73;;;7.50;;
65375;SDS011;51976;47.332;9.404;2023-06-10T08:41:28;8.52;;;7.50;;
65375;SDS011;51976;47.332;9.404;2023-06-10T08:44:04;9.98;;;7.47;;
65375;SDS011;51976;47.332;9.404;2023-06-10T08:46:43;10.55;;;7.78;;
65375;SDS011;51976;47.332;9.404;2023-06-10T08:49:10;7.88;;;7.07;;
65375;SDS011;51976;47.332;9.404;2023-06-10T08:51:42;7.72;;;6.93;;
65375;SDS011;51976;47.332;9.404;2023-06-10T08:54:11;8.30;;;7.50;;
65375;SDS011;51976;47.332;9.404;2023-06-10T08:56:43;8.40;;;7.53;;
65375;SDS011;51976;47.332;9.404;2023-06-10T08:59:11;11.30;;;7.22;;
65375;SDS011;51976;47.332;9.404;2023-06-10T09:01:37;8.30;;;7.28;;
65375;SDS011;51976;47.332;9.404;2023-06-10T09:04:03;10.57;;;8.05;;
65375;SDS011;51976;47.332;9.404;2023-06-10T09:06:29;9.93;;;7.55;;
65375;SDS011;51976;47.332;9.404;2023-06-10T09:08:58;8.65;;;7.30;;
65375;SDS011;51976;47.332;9.404;2023-06-10T09:11:24;10.57;;;7.45;;
65375;SDS011;51976;47.332;9.404;2023-06-10T09:13:50;8.40;;;7.55;;
65375;SDS011;51976;47.332;9.404;2023-06-10T09:16:16;10.25;;;8.38;;
65375;SDS011;51976;47.332;9.404;2023-06-10T09:18:41;8.57;;;7.68;;
65375;SDS011;51976;47.332;9.404;2023-06-10T09:21:07;11.68;;;8.25;;
65375;SDS011;51976;47.332;9.404;2023-06-10T09:23:33;8.85;;;7.78;;
65375;SDS011;51976;47.332;9.404;2023-06-10T09:25:59;9.88;;;7.60;;
65375;SDS011;51976;47.332;9.404;2023-06-10T09:28:24;9.68;;;8.68;;
65375;SDS011;51976;47.332;9.404;2023-06-10T09:30:50;9.10;;;8.15;;
65375;SDS011;51976;47.332;9.404;2023-06-10T09:33:27;11.48;;;7.63;;
65375;SDS011;51976;47.332;9.404;2023-06-10T09:35:53;8.25;;;7.22;;
65375;SDS011;51976;47.332;9.404;2023-06-10T09:38:21;8.75;;;7.82;;
65375;SDS011;51976;47.332;9.404;2023-06-10T09:40:53;11.70;;;7.90;;
65375;SDS011;51976;47.332;9.404;2023-06-10T09:43:19;13.02;;;9.32;;
65375;SDS011;51976;47.332;9.404;2023-06-10T09:45:49;8.15;;;7.35;;
65375;SDS011;51976;47.332;9.404;2023-06-10T09:48:17;8.43;;;7.63;;
65375;SDS011;51976;47.332;9.404;2023-06-10T09:50:43;9.60;;;8.35;;
65375;SDS011;51976;47.332;9.404;2023-06-10T09:53:10;8.00;;;7.20;;
65375;SDS011;51976;47.332;9.404;2023-06-10T09:55:39;9.05;;;7.60;;
65375;SDS011;51976;47.332;9.404;2023-06-10T09:58:05;8.73;;;7.47;;
65375;SDS011;51976;47.332;9.404;2023-06-10T10:00:32;10.90;;;8.52;;
65375;SDS011;51976;47.332;9.404;2023-06-10T10:02:58;10.52;;;7.60;;
65375;SDS011;51976;47.332;9.404;2023-06-10T10:05:23;8.50;;;7.60;;
65375;SDS011;51976;47.332;9.404;2023-06-10T10:07:49;10.18;;;8.32;;
65375;SDS011;51976;47.332;9.404;2023-06-10T10:10:16;8.98;;;7.32;;
65375;SDS011;51976;47.332;9.404;2023-06-10T10:12:43;8.20;;;7.40;;
65375;SDS011;51976;47.332;9.404;2023-06-10T10:15:11;8.43;;;7.40;;
65375;SDS011;51976;47.332;9.404;2023-06-10T10:17:37;8.32;;;7.53;;
65375;SDS011;51976;47.332;9.404;2023-06-10T10:20:10;9.20;;;8.15;;
65375;SDS011;51976;47.332;9.404;2023-06-10T10:22:38;8.90;;;7.65;;
65375;SDS011;51976;47.332;9.404;2023-06-10T10:25:07;8.48;;;7.50;;
65375;SDS011;51976;47.332;9.404;2023-06-10T10:27:44;9.93;;;7.57;;
65375;SDS011;51976;47.332;9.404;2023-06-10T10:30:16;8.77;;;6.82;;
65375;SDS011;51976;47.332;9.404;2023-06-10T10:32:52;10.55;;;6.97;;
65375;SDS011;51976;47.332;9.404;2023-06-10T10:35:26;8.13;;;6.85;;
65375;SDS011;51976;47.332;9.404;2023-06-10T10:37:52;8.60;;;7.47;;
65375;SDS011;51976;47.332;9.404;2023-06-10T10:40:19;8.65;;;7.25;;
65375;SDS011;51976;47.332;9.404;2023-06-10T10:42:48;9.15;;;6.90;;
65375;SDS011;51976;47.332;9.404;2023-06-10T10:45:14;7.90;;;7.10;;
65375;SDS011;51976;47.332;9.404;2023-06-10T10:47:40;7.85;;;6.20;;
65375;SDS011;51976;47.332;9.404;2023-06-10T10:50:13;7.70;;;6.90;;
65375;SDS011;51976;47.332;9.404;2023-06-10T10:52:48;8.55;;;7.70;;
65375;SDS011;51976;47.332;9.404;2023-06-10T10:55:18;8.48;;;7.60;;
65375;SDS011;51976;47.332;9.404;2023-06-10T10:57:44;8.38;;;7.20;;
65375;SDS011;51976;47.332;9.404;2023-06-10T11:00:35;8.27;;;7.30;;
65375;SDS011;51976;47.332;9.404;2023-06-10T11:03:06;8.88;;;7.07;;
65375;SDS011;51976;47.332;9.404;2023-06-10T11:05:38;27.85;;;9.63;;
65375;SDS011;51976;47.332;9.404;2023-06-10T11:08:14;9.25;;;6.55;;
65375;SDS011;51976;47.332;9.404;2023-06-10T11:11:00;7.50;;;6.45;;
65375;SDS011;51976;47.332;9.404;2023-06-10T11:13:42;8.13;;;7.20;;
65375;SDS011;51976;47.332;9.404;2023-06-10T11:16:25;14.70;;;6.45;;
65375;SDS011;51976;47.332;9.404;2023-06-10T11:18:53;7.60;;;6.05;;
65375;SDS011;51976;47.332;9.404;2023-06-10T11:21:19;9.10;;;6.95;;
65375;SDS011;51976;47.332;9.404;2023-06-10T11:23:44;7.07;;;6.38;;
65375;SDS011;51976;47.332;9.404;2023-06-10T11:26:13;9.15;;;7.45;;
65375;SDS011;51976;47.332;9.404;2023-06-10T11:29:02;8.55;;;6.85;;
65375;SDS011;51976;47.332;9.404;2023-06-10T11:31:30;7.18;;;6.40;;
65375;SDS011;51976;47.332;9.404;2023-06-10T11:34:03;7.82;;;6.50;;
65375;SDS011;51976;47.332;9.404;2023-06-10T11:36:30;8.50;;;6.88;;
65375;SDS011;51976;47.332;9.404;2023-06-10T11:38:57;7.50;;;5.93;;
65375;SDS011;51976;47.332;9.404;2023-06-10T11:41:28;7.93;;;6.13;;
65375;SDS011;51976;47.332;9.404;2023-06-10T11:43:55;8.48;;;7.07;;
65375;SDS011;51976;47.332;9.404;2023-06-10T11:46:21;7.53;;;6.70;;
65375;SDS011;51976;47.332;9.404;2023-06-10T11:48:54;7.18;;;6.47;;
65375;SDS011;51976;47.332;9.404;2023-06-10T11:51:21;8.02;;;5.93;;
65375;SDS011;51976;47.332;9.404;2023-06-10T11:53:48;8.57;;;6.07;;
65375;SDS011;51976;47.332;9.404;2023-06-10T11:56:23;8.15;;;6.07;;
65375;SDS011;51976;47.332;9.404;2023-06-10T11:58:53;9.60;;;6.00;;
65375;SDS011;51976;47.332;9.404;2023-06-10T12:01:21;6.90;;;6.20;;
65375;SDS011;51976;47.332;9.404;2023-06-10T12:03:47;6.97;;;5.57;;
65375;SDS011;51976;47.332;9.404;2023-06-10T12:06:21;5.85;;;5.25;;
65375;SDS011;51976;47.332;9.404;2023-06-10T12:08:46;6.40;;;4.97;;
65375;SDS011;51976;47.332;9.404;2023-06-10T12:11:12;5.60;;;5.07;;
65375;SDS011;51976;47.332;9.404;2023-06-10T12:13:37;5.00;;;4.53;;
65375;SDS011;51976;47.332;9.404;2023-06-10T12:16:14;8.85;;;4.50;;
65375;SDS011;51976;47.332;9.404;2023-06-10T12:18:41;8.00;;;5.13;;
65375;SDS011;51976;47.332;9.404;2023-06-10T12:21:17;5.20;;;4.53;;
65375;SDS011;51976;47.332;9.404;2023-06-10T12:24:02;6.05;;;5.38;;
65375;SDS011;51976;47.332;9.404;2023-06-10T12:26:33;7.13;;;5.28;;
65375;SDS011;51976;47.332;9.404;2023-06-10T12:29:01;8.57;;;5.45;;
65375;SDS011;51976;47.332;9.404;2023-06-10T12:31:27;6.13;;;5.00;;
65375;SDS011;51976;47.332;9.404;2023-06-10T12:34:07;6.63;;;4.85;;
65375;SDS011;51976;47.332;9.404;2023-06-10T12:36:33;7.10;;;4.53;;
65375;SDS011;51976;47.332;9.404;2023-06-10T12:39:02;5.25;;;4.60;;
65375;SDS011;51976;47.332;9.404;2023-06-10T12:41:30;5.03;;;4.45;;
65375;SDS011;51976;47.332;9.404;2023-06-10T12:43:57;5.05;;;4.60;;
65375;SDS011;51976;47.332;9.404;2023-06-10T12:46:22;5.50;;;4.38;;
65375;SDS011;51976;47.332;9.404;2023-06-10T12:48:50;5.32;;;4.20;;
65375;SDS011;51976;47.332;9.404;2023-06-10T12:51:20;4.65;;;3.75;;
65375;SDS011;51976;47.332;9.404;2023-06-10T12:53:45;6.40;;;4.20;;
65375;SDS011;51976;47.332;9.404;2023-06-10T12:56:11;5.43;;;4.30;;
65375;SDS011;51976;47.332;9.404;2023-06-10T12:58:37;4.25;;;3.88;;
65375;SDS011;51976;47.332;9.404;2023-06-10T13:01:02;6.82;;;3.90;;
65375;SDS011;51976;47.332;9.404;2023-06-10T13:03:29;8.52;;;3.92;;
65375;SDS011;51976;47.332;9.404;2023-06-10T13:05:54;7.28;;;4.20;;
65375;SDS011;51976;47.332;9.404;2023-06-10T13:08:20;4.93;;;3.95;;
65375;SDS011;51976;47.332;9.404;2023-06-10T13:10:45;7.63;;;4.07;;
65375;SDS011;51976;47.332;9.404;2023-06-10T13:13:11;6.55;;;3.85;;
65375;SDS011;51976;47.332;9.404;2023-06-10T13:15:36;4.43;;;3.90;;
65375;SDS011;51976;47.332;9.404;2023-06-10T13:18:04;4.65;;;3.90;;
65375;SDS011;51976;47.332;9.404;2023-06-10T13:20:30;4.93;;;3.95;;
65375;SDS011;51976;47.332;9.404;2023-06-10T13:22:56;4.55;;;4.13;;
65375;SDS011;51976;47.332;9.404;2023-06-10T13:25:21;4.75;;;4.18;;
65375;SDS011;51976;47.332;9.404;2023-06-10T13:27:46;7.32;;;4.05;;
65375;SDS011;51976;47.332;9.404;2023-06-10T13:30:12;4.18;;;3.60;;
65375;SDS011;51976;47.332;9.404;2023-06-10T13:32:38;4.30;;;3.67;;
65375;SDS011;51976;47.332;9.404;2023-06-10T13:35:04;4.88;;;3.80;;
65375;SDS011;51976;47.332;9.404;2023-06-10T13:37:29;5.47;;;4.35;;
65375;SDS011;51976;47.332;9.404;2023-06-10T13:39:55;4.20;;;3.83;;
65375;SDS011;51976;47.332;9.404;2023-06-10T13:42:21;5.43;;;4.25;;
65375;SDS011;51976;47.332;9.404;2023-06-10T13:44:47;6.22;;;4.47;;
65375;SDS011;51976;47.332;9.404;2023-06-10T13:47:13;5.68;;;4.45;;
65375;SDS011;51976;47.332;9.404;2023-06-10T13:49:39;4.35;;;3.95;;
65375;SDS011;51976;47.332;9.404;2023-06-10T13:52:05;6.53;;;4.18;;
65375;SDS011;51976;47.332;9.404;2023-06-10T13:54:31;5.25;;;4.05;;
65375;SDS011;51976;47.332;9.404;2023-06-10T13:56:57;4.75;;;4.15;;
65375;SDS011;51976;47.332;9.404;2023-06-10T13:59:22;4.05;;;3.65;;
65375;SDS011;51976;47.332;9.404;2023-06-10T14:01:48;4.97;;;3.80;;
65375;SDS011;51976;47.332;9.404;2023-06-10T14:04:13;5.05;;;3.42;;
65375;SDS011;51976;47.332;9.404;2023-06-10T14:06:39;4.35;;;3.95;;
65375;SDS011;51976;47.332;9.404;2023-06-10T14:09:04;6.22;;;4.00;;
65375;SDS011;51976;47.332;9.404;2023-06-10T14:11:30;4.50;;;3.75;;
65375;SDS011;51976;47.332;9.404;2023-06-10T14:13:56;5.63;;;4.72;;
65375;SDS011;51976;47.332;9.404;2023-06-10T14:16:22;5.50;;;4.35;;
65375;SDS011;51976;47.332;9.404;2023-06-10T14:18:48;4.22;;;3.83;;
65375;SDS011;51976;47.332;9.404;2023-06-10T14:21:15;5.85;;;4.60;;
65375;SDS011;51976;47.332;9.404;2023-06-10T14:23:41;6.35;;;4.35;;
65375;SDS011;51976;47.332;9.404;2023-06-10T14:26:08;6.22;;;3.90;;
65375;SDS011;51976;47.332;9.404;2023-06-10T14:28:33;4.80;;;4.38;;
65375;SDS011;51976;47.332;9.404;2023-06-10T14:30:59;4.10;;;3.70;;
65375;SDS011;51976;47.332;9.404;2023-06-10T14:33:24;7.03;;;3.80;;
65375;SDS011;51976;47.332;9.404;2023-06-10T14:35:49;4.80;;;4.18;;
65375;SDS011;51976;47.332;9.404;2023-06-10T14:38:15;4.47;;;3.70;;
65375;SDS011;51976;47.332;9.404;2023-06-10T14:40:40;3.63;;;3.17;;
65375;SDS011;51976;47.332;9.404;2023-06-10T14:43:06;3.58;;;3.25;;
65375;SDS011;51976;47.332;9.404;2023-06-10T14:45:35;4.55;;;3.65;;
65375;SDS011;51976;47.332;9.404;2023-06-10T14:48:02;4.72;;;3.58;;